createdAt,value
2018-07-17T18:20:42.812Z,18.20
2018-07-17T18:23:11.407Z,17.90
2018-07-17T18:25:39.779Z,18.00
2018-07-17T18:28:08.353Z,17.90
2018-07-17T18:30:37.013Z,18.00
2018-07-17T18:33:05.564Z,18.00
2018-07-17T18:35:34.039Z,18.00
2018-07-17T18:40:31.012Z,18.00
2018-07-17T18:42:59.464Z,17.90
2018-07-17T18:45:27.976Z,17.90
2018-07-17T18:47:56.311Z,17.80
2018-07-17T18:52:53.254Z,17.70
2018-07-17T18:55:21.552Z,17.70
2018-07-17T18:57:49.928Z,17.70
2018-07-17T19:00:18.677Z,17.70
2018-07-17T19:02:46.968Z,17.70
2018-07-17T19:05:15.622Z,17.70
2018-07-17T19:07:44.121Z,17.60
2018-07-17T19:10:12.907Z,17.60
2018-07-17T19:12:41.532Z,17.60
2018-07-17T19:15:09.820Z,17.60
2018-07-17T19:20:06.180Z,17.50
2018-07-17T19:22:34.814Z,17.40
2018-07-17T19:25:04.428Z,17.50
2018-07-17T19:27:32.767Z,17.50
2018-07-17T19:30:01.526Z,17.40
2018-07-17T19:32:30.025Z,17.40
2018-07-17T19:34:58.575Z,17.50
2018-07-17T19:37:27.264Z,17.50
2018-07-17T19:39:55.544Z,17.60
2018-07-17T19:42:24.220Z,17.50
2018-07-17T19:44:52.868Z,17.50
2018-07-17T19:47:21.173Z,17.40
2018-07-17T19:49:49.744Z,17.50
2018-07-17T19:52:18.311Z,17.40
2018-07-17T19:54:46.616Z,17.40
2018-07-17T19:57:14.940Z,17.40
2018-07-17T19:59:43.247Z,17.30
2018-07-17T20:02:11.800Z,17.30
2018-07-17T20:04:40.268Z,17.30
2018-07-17T20:07:08.943Z,17.20
2018-07-17T20:09:37.531Z,17.30
2018-07-17T20:12:06.434Z,17.30
2018-07-17T20:14:34.967Z,17.40
2018-07-17T20:17:03.404Z,17.40
2018-07-17T20:19:31.716Z,17.40
2018-07-17T20:22:00.360Z,17.50
2018-07-17T20:24:29.128Z,17.50
2018-07-17T20:26:57.475Z,17.40
2018-07-17T20:29:26.299Z,17.50
2018-07-17T20:31:54.607Z,17.40
2018-07-17T20:34:23.102Z,17.40
2018-07-17T20:36:51.433Z,17.50
2018-07-17T20:39:19.996Z,17.40
2018-07-17T20:41:48.296Z,17.40
2018-07-17T20:44:16.579Z,17.40
2018-07-17T20:46:44.944Z,17.30
2018-07-17T20:49:13.820Z,17.20
2018-07-17T20:51:42.368Z,17.30
2018-07-17T20:54:10.852Z,17.30
2018-07-17T20:56:39.525Z,17.30
2018-07-17T20:59:07.809Z,17.30
2018-07-17T21:01:36.124Z,17.30
2018-07-17T21:04:04.604Z,17.30
2018-07-17T21:06:33.151Z,17.40
2018-07-17T21:09:01.639Z,17.40
2018-07-17T21:11:30.208Z,17.30
2018-07-17T21:13:59.044Z,17.30
2018-07-17T21:16:27.861Z,17.30
2018-07-17T21:18:56.163Z,17.30
2018-07-17T21:21:25.057Z,17.20
2018-07-17T21:23:53.620Z,17.20
2018-07-17T21:26:22.423Z,17.10
2018-07-17T21:28:50.796Z,17.10
2018-07-17T21:31:19.392Z,17.10
2018-07-17T21:33:47.976Z,17.00
2018-07-17T21:36:16.308Z,17.00
2018-07-17T21:38:44.865Z,16.90
2018-07-17T21:41:13.752Z,16.90
2018-07-17T21:43:42.280Z,16.90
2018-07-17T21:46:10.856Z,16.90
2018-07-17T21:48:39.216Z,17.00
2018-07-17T21:51:07.518Z,17.00
2018-07-17T21:53:35.820Z,17.10
2018-07-17T21:56:04.144Z,17.10
2018-07-17T21:58:32.425Z,17.20
2018-07-17T22:01:00.807Z,17.30
2018-07-17T22:03:29.263Z,17.30
2018-07-17T22:05:57.888Z,17.40
2018-07-17T22:08:26.320Z,17.40
2018-07-17T22:10:54.702Z,17.40
2018-07-17T22:13:23.282Z,17.30
2018-07-17T22:15:51.929Z,17.30
2018-07-17T22:18:20.288Z,17.40
2018-07-17T22:20:48.811Z,17.30
2018-07-17T22:23:17.451Z,17.30
2018-07-17T22:25:45.991Z,17.10
2018-07-17T22:28:14.284Z,17.00
2018-07-17T22:30:42.617Z,17.10
2018-07-17T22:33:11.120Z,17.00
2018-07-17T22:35:39.805Z,17.00
2018-07-17T22:38:08.141Z,16.90
2018-07-17T22:40:36.619Z,16.90
2018-07-17T22:43:05.455Z,16.80
2018-07-17T22:45:33.792Z,16.70
2018-07-17T22:48:02.393Z,16.70
2018-07-17T22:50:31.088Z,16.60
2018-07-17T22:52:59.456Z,16.60
2018-07-17T22:55:28.060Z,16.60
2018-07-17T22:57:56.589Z,16.60
2018-07-17T23:00:25.157Z,16.60
2018-07-17T23:02:53.754Z,16.60
2018-07-17T23:05:22.085Z,16.60
2018-07-17T23:07:50.671Z,16.60
2018-07-17T23:10:19.584Z,16.60
2018-07-17T23:12:47.876Z,16.60
2018-07-17T23:15:16.327Z,16.70
2018-07-17T23:17:44.853Z,16.80
2018-07-17T23:22:51.729Z,16.90
2018-07-17T23:25:20.827Z,16.90
2018-07-17T23:27:49.822Z,16.90
2018-07-17T23:30:18.487Z,17.00
2018-07-17T23:32:48.328Z,17.10
2018-07-17T23:35:17.193Z,17.10
2018-07-17T23:37:45.525Z,17.00
2018-07-17T23:40:14.769Z,17.00
2018-07-17T23:42:43.315Z,17.00
2018-07-17T23:45:11.960Z,17.00
2018-07-17T23:47:40.244Z,17.00
2018-07-17T23:50:08.628Z,17.10
2018-07-17T23:52:36.956Z,17.20
2018-07-17T23:55:05.633Z,17.30
2018-07-17T23:57:34.163Z,17.30
